sensor_id;sensor_type;location;lat;lon;timestamp;pressure;altitude;pressure_sealevel;temperature;humidity
17309;BME280;8772;42.804;23.426;2023-03-18T00:01:20;75381.44;;;-140.58;100.00
17309;BME280;8772;42.804;23.426;2023-03-18T00:03:49;75393.75;;;-140.58;100.00
17309;BME280;8772;42.804;23.426;2023-03-18T00:06:17;75406.06;;;-140.58;100.00
17309;BME280;8772;42.804;23.426;2023-03-18T00:08:45;75418.38;;;-140.58;100.00
17309;BME280;8772;42.804;23.426;2023-03-18T00:11:14;75424.53;;;-140.58;100.00
17309;BME280;8772;42.804;23.426;2023-03-18T00:13:41;75422.47;;;-140.58;100.00
17309;BME280;8772;42.804;23.426;2023-03-18T00:16:09;75412.22;;;-140.58;100.00
17309;BME280;8772;42.804;23.426;2023-03-18T00:18:37;75406.06;;;-140.58;100.00
17309;BME280;8772;42.804;23.426;2023-03-18T00:21:06;75395.78;;;-140.58;100.00
17309;BME280;8772;42.804;23.426;2023-03-18T00:23:35;75381.44;;;-140.58;100.00
17309;BME280;8772;42.804;23.426;2023-03-18T00:26:03;75381.44;;;-140.58;100.00
17309;BME280;8772;42.804;23.426;2023-03-18T00:28:31;75365.00;;;-140.58;100.00
17309;BME280;8772;42.804;23.426;2023-03-18T00:31:02;75346.53;;;-140.58;100.00
17309;BME280;8772;42.804;23.426;2023-03-18T00:33:31;75348.59;;;-140.58;100.00
17309;BME280;8772;42.804;23.426;2023-03-18T00:35:58;75342.44;;;-140.58;100.00
17309;BME280;8772;42.804;23.426;2023-03-18T00:38:26;75342.44;;;-140.58;100.00
17309;BME280;8772;42.804;23.426;2023-03-18T00:40:54;75352.69;;;-140.58;100.00
17309;BME280;8772;42.804;23.426;2023-03-18T00:43:36;75348.59;;;-140.58;100.00
17309;BME280;8772;42.804;23.426;2023-03-18T00:46:11;75360.91;;;-140.58;100.00
17309;BME280;8772;42.804;23.426;2023-03-18T00:48:38;75346.53;;;-140.58;100.00
17309;BME280;8772;42.804;23.426;2023-03-18T00:51:05;75348.59;;;-140.58;100.00
17309;BME280;8772;42.804;23.426;2023-03-18T00:53:33;75348.59;;;-140.58;100.00
17309;BME280;8772;42.804;23.426;2023-03-18T00:56:00;75344.47;;;-140.58;100.00
17309;BME280;8772;42.804;23.426;2023-03-18T00:58:27;75342.44;;;-140.58;100.00
17309;BME280;8772;42.804;23.426;2023-03-18T01:00:54;75350.63;;;-140.58;100.00
17309;BME280;8772;42.804;23.426;2023-03-18T01:06:43;75377.31;;;-140.58;100.00
17309;BME280;8772;42.804;23.426;2023-03-18T01:09:11;75369.09;;;-140.58;100.00
17309;BME280;8772;42.804;23.426;2023-03-18T01:11:38;75389.63;;;-140.58;100.00
17309;BME280;8772;42.804;23.426;2023-03-18T01:14:05;75387.59;;;-140.58;100.00
17309;BME280;8772;42.804;23.426;2023-03-18T01:16:33;75377.31;;;-140.58;100.00
17309;BME280;8772;42.804;23.426;2023-03-18T01:19:00;75399.91;;;-140.58;100.00
17309;BME280;8772;42.804;23.426;2023-03-18T01:21:28;75401.94;;;-140.58;100.00
17309;BME280;8772;42.804;23.426;2023-03-18T01:23:56;75401.94;;;-140.58;100.00
17309;BME280;8772;42.804;23.426;2023-03-18T01:26:26;75408.09;;;-140.58;100.00
17309;BME280;8772;42.804;23.426;2023-03-18T01:28:53;75414.25;;;-140.58;100.00
17309;BME280;8772;42.804;23.426;2023-03-18T01:31:20;75406.06;;;-140.58;100.00
17309;BME280;8772;42.804;23.426;2023-03-18T01:33:48;75383.47;;;-140.58;100.00
17309;BME280;8772;42.804;23.426;2023-03-18T01:36:15;75375.25;;;-140.58;100.00
17309;BME280;8772;42.804;23.426;2023-03-18T01:38:43;75365.00;;;-140.58;100.00
17309;BME280;8772;42.804;23.426;2023-03-18T01:41:10;75356.78;;;-140.58;100.00
17309;BME280;8772;42.804;23.426;2023-03-18T01:43:40;75371.16;;;-140.58;100.00
17309;BME280;8772;42.804;23.426;2023-03-18T01:46:39;75373.22;;;-140.58;100.00
17309;BME280;8772;42.804;23.426;2023-03-18T01:49:10;75373.22;;;-140.58;100.00
17309;BME280;8772;42.804;23.426;2023-03-18T01:51:39;75377.31;;;-140.58;100.00
17309;BME280;8772;42.804;23.426;2023-03-18T01:54:08;75369.09;;;-140.58;100.00
17309;BME280;8772;42.804;23.426;2023-03-18T01:56:37;75371.16;;;-140.58;100.00
17309;BME280;8772;42.804;23.426;2023-03-18T01:59:08;75362.94;;;-140.58;100.00
17309;BME280;8772;42.804;23.426;2023-03-18T02:01:39;75340.38;;;-140.58;100.00
17309;BME280;8772;42.804;23.426;2023-03-18T02:04:08;75336.28;;;-140.58;100.00
17309;BME280;8772;42.804;23.426;2023-03-18T02:06:36;75336.28;;;-140.58;100.00
17309;BME280;8772;42.804;23.426;2023-03-18T02:09:04;75352.69;;;-140.58;100.00
17309;BME280;8772;42.804;23.426;2023-03-18T02:11:34;75356.78;;;-140.58;100.00
17309;BME280;8772;42.804;23.426;2023-03-18T02:14:02;75360.91;;;-140.58;100.00
17309;BME280;8772;42.804;23.426;2023-03-18T02:16:33;75367.06;;;-140.58;100.00
17309;BME280;8772;42.804;23.426;2023-03-18T02:19:06;75369.09;;;-140.58;100.00
17309;BME280;8772;42.804;23.426;2023-03-18T02:21:43;75371.16;;;-140.58;100.00
17309;BME280;8772;42.804;23.426;2023-03-18T02:24:21;75358.84;;;-140.58;100.00
17309;BME280;8772;42.804;23.426;2023-03-18T02:26:55;75360.91;;;-140.58;100.00
17309;BME280;8772;42.804;23.426;2023-03-18T02:29:27;75369.09;;;-140.58;100.00
17309;BME280;8772;42.804;23.426;2023-03-18T02:31:56;75367.06;;;-140.58;100.00
17309;BME280;8772;42.804;23.426;2023-03-18T02:34:27;75401.94;;;-140.58;100.00
17309;BME280;8772;42.804;23.426;2023-03-18T02:36:55;75406.06;;;-140.58;100.00
17309;BME280;8772;42.804;23.426;2023-03-18T02:39:22;75381.44;;;-140.58;100.00
17309;BME280;8772;42.804;23.426;2023-03-18T02:41:49;75397.84;;;-140.58;100.00
17309;BME280;8772;42.804;23.426;2023-03-18T02:44:17;75401.94;;;-140.58;100.00
17309;BME280;8772;42.804;23.426;2023-03-18T02:46:51;75385.53;;;-140.58;100.00
17309;BME280;8772;42.804;23.426;2023-03-18T02:49:20;75385.53;;;-140.58;100.00
17309;BME280;8772;42.804;23.426;2023-03-18T02:51:49;75383.47;;;-140.58;100.00
17309;BME280;8772;42.804;23.426;2023-03-18T02:54:18;75381.44;;;-140.58;100.00
17309;BME280;8772;42.804;23.426;2023-03-18T02:56:45;75371.16;;;-140.58;100.00
17309;BME280;8772;42.804;23.426;2023-03-18T02:59:13;75373.22;;;-140.58;100.00
17309;BME280;8772;42.804;23.426;2023-03-18T03:01:43;75365.00;;;-140.58;100.00
17309;BME280;8772;42.804;23.426;2023-03-18T03:04:12;75373.22;;;-140.58;100.00
17309;BME280;8772;42.804;23.426;2023-03-18T03:06:40;75377.31;;;-140.58;100.00
17309;BME280;8772;42.804;23.426;2023-03-18T03:09:10;75393.75;;;-140.58;100.00
17309;BME280;8772;42.804;23.426;2023-03-18T03:11:38;75401.94;;;-140.58;100.00
17309;BME280;8772;42.804;23.426;2023-03-18T03:14:05;75393.75;;;-140.58;100.00
17309;BME280;8772;42.804;23.426;2023-03-18T03:16:32;75393.75;;;-140.58;100.00
17309;BME280;8772;42.804;23.426;2023-03-18T03:18:59;75381.44;;;-140.58;100.00
17309;BME280;8772;42.804;23.426;2023-03-18T03:21:28;75387.59;;;-140.58;100.00
17309;BME280;8772;42.804;23.426;2023-03-18T03:23:55;75397.84;;;-140.58;100.00
17309;BME280;8772;42.804;23.426;2023-03-18T03:26:22;75397.84;;;-140.58;100.00
17309;BME280;8772;42.804;23.426;2023-03-18T03:28:49;75395.78;;;-140.58;100.00
17309;BME280;8772;42.804;23.426;2023-03-18T03:31:16;75399.91;;;-140.58;100.00
17309;BME280;8772;42.804;23.426;2023-03-18T03:33:44;75406.06;;;-140.58;100.00
17309;BME280;8772;42.804;23.426;2023-03-18T03:36:12;75426.56;;;-140.58;100.00
17309;BME280;8772;42.804;23.426;2023-03-18T03:38:41;75424.53;;;-140.58;100.00
17309;BME280;8772;42.804;23.426;2023-03-18T03:41:09;75422.47;;;-140.58;100.00
17309;BME280;8772;42.804;23.426;2023-03-18T03:43:36;75420.41;;;-140.58;100.00
17309;BME280;8772;42.804;23.426;2023-03-18T03:46:03;75422.47;;;-140.58;100.00
17309;BME280;8772;42.804;23.426;2023-03-18T03:48:30;75434.78;;;-140.58;100.00
17309;BME280;8772;42.804;23.426;2023-03-18T03:50:57;75445.06;;;-140.58;100.00
17309;BME280;8772;42.804;23.426;2023-03-18T03:53:24;75447.09;;;-140.58;100.00
17309;BME280;8772;42.804;23.426;2023-03-18T03:55:54;75459.41;;;-140.58;100.00
17309;BME280;8772;42.804;23.426;2023-03-18T03:58:21;75463.53;;;-140.58;100.00
17309;BME280;8772;42.804;23.426;2023-03-18T04:00:48;75469.69;;;-140.58;100.00
17309;BME280;8772;42.804;23.426;2023-03-18T04:03:15;75467.63;;;-140.58;100.00
17309;BME280;8772;42.804;23.426;2023-03-18T04:05:42;75455.31;;;-140.58;100.00
17309;BME280;8772;42.804;23.426;2023-03-18T04:08:09;75451.22;;;-140.58;100.00
17309;BME280;8772;42.804;23.426;2023-03-18T04:10:36;75467.63;;;-140.58;100.00
17309;BME280;8772;42.804;23.426;2023-03-18T04:13:05;75473.78;;;-140.58;100.00
17309;BME280;8772;42.804;23.426;2023-03-18T04:15:33;75477.88;;;-140.58;100.00
17309;BME280;8772;42.804;23.426;2023-03-18T04:18:00;75490.19;;;-140.58;100.00
17309;BME280;8772;42.804;23.426;2023-03-18T04:20:32;75494.31;;;-140.58;100.00
17309;BME280;8772;42.804;23.426;2023-03-18T04:23:00;75500.47;;;-140.58;100.00
17309;BME280;8772;42.804;23.426;2023-03-18T04:25:27;75512.78;;;-140.58;100.00
17309;BME280;8772;42.804;23.426;2023-03-18T04:27:54;75518.94;;;-140.58;100.00
17309;BME280;8772;42.804;23.426;2023-03-18T04:30:23;75531.25;;;-140.58;100.00
17309;BME280;8772;42.804;23.426;2023-03-18T04:32:51;75553.81;;;-140.58;100.00
17309;BME280;8772;42.804;23.426;2023-03-18T04:35:19;75566.16;;;-140.58;100.00
17309;BME280;8772;42.804;23.426;2023-03-18T04:37:47;75560.00;;;-140.58;100.00
17309;BME280;8772;42.804;23.426;2023-03-18T04:40:14;75566.16;;;-140.58;100.00
17309;BME280;8772;42.804;23.426;2023-03-18T04:42:41;75553.81;;;-140.58;100.00
17309;BME280;8772;42.804;23.426;2023-03-18T04:45:10;75553.81;;;-140.58;100.00
17309;BME280;8772;42.804;23.426;2023-03-18T04:47:39;75529.19;;;-140.58;100.00
17309;BME280;8772;42.804;23.426;2023-03-18T04:50:07;75523.03;;;-140.58;100.00
17309;BME280;8772;42.804;23.426;2023-03-18T04:52:37;75512.78;;;-140.58;100.00
17309;BME280;8772;42.804;23.426;2023-03-18T04:55:05;75510.72;;;-140.58;100.00
17309;BME280;8772;42.804;23.426;2023-03-18T04:57:32;75496.34;;;-140.58;100.00
17309;BME280;8772;42.804;23.426;2023-03-18T05:00:02;75488.16;;;-140.58;100.00
17309;BME280;8772;42.804;23.426;2023-03-18T05:02:30;75484.03;;;-140.58;100.00
17309;BME280;8772;42.804;23.426;2023-03-18T05:04:58;75471.72;;;-140.58;100.00
17309;BME280;8772;42.804;23.426;2023-03-18T05:07:26;75459.41;;;-140.58;100.00
17309;BME280;8772;42.804;23.426;2023-03-18T05:09:52;75457.38;;;-140.58;100.00
17309;BME280;8772;42.804;23.426;2023-03-18T05:12:19;75438.91;;;-140.58;100.00
17309;BME280;8772;42.804;23.426;2023-03-18T05:14:46;75447.09;;;-140.58;100.00
17309;BME280;8772;42.804;23.426;2023-03-18T05:17:14;75434.78;;;-140.58;100.00
17309;BME280;8772;42.804;23.426;2023-03-18T05:19:42;75428.63;;;-140.58;100.00
17309;BME280;8772;42.804;23.426;2023-03-18T05:22:11;75420.41;;;-140.58;100.00
17309;BME280;8772;42.804;23.426;2023-03-18T05:24:40;75420.41;;;-140.58;100.00
17309;BME280;8772;42.804;23.426;2023-03-18T05:27:08;75406.06;;;-140.58;100.00
17309;BME280;8772;42.804;23.426;2023-03-18T05:29:35;75410.16;;;-140.58;100.00
17309;BME280;8772;42.804;23.426;2023-03-18T05:32:03;75414.25;;;-140.58;100.00
17309;BME280;8772;42.804;23.426;2023-03-18T05:34:31;75397.84;;;-140.58;100.00
17309;BME280;8772;42.804;23.426;2023-03-18T05:36:58;75393.75;;;-140.58;100.00
17309;BME280;8772;42.804;23.426;2023-03-18T05:39:26;75385.53;;;-140.58;100.00
17309;BME280;8772;42.804;23.426;2023-03-18T05:41:53;75375.25;;;-140.58;100.00
17309;BME280;8772;42.804;23.426;2023-03-18T05:44:20;75365.00;;;-140.58;100.00
17309;BME280;8772;42.804;23.426;2023-03-18T05:46:47;75354.75;;;-140.58;100.00
17309;BME280;8772;42.804;23.426;2023-03-18T05:49:15;75346.53;;;-140.58;100.00
17309;BME280;8772;42.804;23.426;2023-03-18T05:51:42;75336.28;;;-140.58;100.00
17309;BME280;8772;42.804;23.426;2023-03-18T05:54:09;75317.81;;;-140.58;100.00
17309;BME280;8772;42.804;23.426;2023-03-18T05:56:37;75301.38;;;-140.58;100.00
17309;BME280;8772;42.804;23.426;2023-03-18T05:59:07;75287.03;;;-140.58;100.00
17309;BME280;8772;42.804;23.426;2023-03-18T06:01:34;75272.66;;;-140.58;100.00
17309;BME280;8772;42.804;23.426;2023-03-18T06:04:01;75258.28;;;-140.58;100.00
17309;BME280;8772;42.804;23.426;2023-03-18T06:06:30;75239.81;;;-140.58;100.00
17309;BME280;8772;42.804;23.426;2023-03-18T06:08:57;75225.44;;;-140.58;100.00
17309;BME280;8772;42.804;23.426;2023-03-18T06:11:25;75211.09;;;-140.58;100.00
17309;BME280;8772;42.804;23.426;2023-03-18T06:13:55;75192.63;;;-140.58;100.00
17309;BME280;8772;42.804;23.426;2023-03-18T06:16:22;75176.19;;;-140.58;100.00
17309;BME280;8772;42.804;23.426;2023-03-18T06:18:50;75163.88;;;-140.58;100.00
17309;BME280;8772;42.804;23.426;2023-03-18T06:21:17;75145.41;;;-140.58;100.00
17309;BME280;8772;42.804;23.426;2023-03-18T06:23:44;75124.88;;;-140.58;100.00
17309;BME280;8772;42.804;23.426;2023-03-18T06:26:11;75108.47;;;-140.58;100.00
17309;BME280;8772;42.804;23.426;2023-03-18T06:28:38;75094.09;;;-140.58;100.00
17309;BME280;8772;42.804;23.426;2023-03-18T06:31:07;75073.56;;;-140.58;100.00
17309;BME280;8772;42.804;23.426;2023-03-18T06:33:35;75061.28;;;-140.58;100.00
17309;BME280;8772;42.804;23.426;2023-03-18T06:36:03;75032.53;;;-140.58;100.00
17309;BME280;8772;42.804;23.426;2023-03-18T06:38:30;75014.06;;;-140.58;100.00
17309;BME280;8772;42.804;23.426;2023-03-18T06:40:57;74995.59;;;-140.58;100.00
17309;BME280;8772;42.804;23.426;2023-03-18T06:43:24;74968.91;;;-140.58;100.00
17309;BME280;8772;42.804;23.426;2023-03-18T06:45:51;74956.59;;;-140.58;100.00
17309;BME280;8772;42.804;23.426;2023-03-18T06:48:20;74940.19;;;-140.58;100.00
17309;BME280;8772;42.804;23.426;2023-03-18T06:50:46;74925.81;;;-140.58;100.00
17309;BME280;8772;42.804;23.426;2023-03-18T06:53:14;74903.25;;;-140.58;100.00
17309;BME280;8772;42.804;23.426;2023-03-18T06:55:42;74884.78;;;-140.58;100.00
17309;BME280;8772;42.804;23.426;2023-03-18T06:58:09;74868.38;;;-140.58;100.00
17309;BME280;8772;42.804;23.426;2023-03-18T07:00:36;74845.78;;;-140.58;100.00
17309;BME280;8772;42.804;23.426;2023-03-18T07:03:06;74829.38;;;-140.58;100.00
17309;BME280;8772;42.804;23.426;2023-03-18T07:05:34;74806.81;;;-140.58;100.00
17309;BME280;8772;42.804;23.426;2023-03-18T07:08:01;74790.38;;;-140.58;100.00
17309;BME280;8772;42.804;23.426;2023-03-18T07:10:29;74776.03;;;-140.58;100.00
17309;BME280;8772;42.804;23.426;2023-03-18T07:12:57;74751.41;;;-140.58;100.00
17309;BME280;8772;42.804;23.426;2023-03-18T07:15:24;74734.97;;;-140.58;100.00
17309;BME280;8772;42.804;23.426;2023-03-18T07:17:51;74718.56;;;-140.58;100.00
17309;BME280;8772;42.804;23.426;2023-03-18T07:20:21;74696.00;;;-140.58;100.00
17309;BME280;8772;42.804;23.426;2023-03-18T07:22:49;74675.47;;;-140.58;100.00
17309;BME280;8772;42.804;23.426;2023-03-18T07:25:17;74671.38;;;-140.58;100.00
17309;BME280;8772;42.804;23.426;2023-03-18T07:27:44;74654.97;;;-140.58;100.00
17309;BME280;8772;42.804;23.426;2023-03-18T07:30:12;74636.50;;;-140.58;100.00
17309;BME280;8772;42.804;23.426;2023-03-18T07:32:39;74628.28;;;-140.58;100.00
17309;BME280;8772;42.804;23.426;2023-03-18T07:35:07;74620.06;;;-140.58;100.00
17309;BME280;8772;42.804;23.426;2023-03-18T07:37:35;74601.59;;;-140.58;100.00
17309;BME280;8772;42.804;23.426;2023-03-18T07:40:04;74579.03;;;-140.58;100.00
17309;BME280;8772;42.804;23.426;2023-03-18T07:42:31;74572.88;;;-140.58;100.00
17309;BME280;8772;42.804;23.426;2023-03-18T07:44:58;74550.31;;;-140.58;100.00
17309;BME280;8772;42.804;23.426;2023-03-18T07:47:25;74535.94;;;-140.58;98.52
17309;BME280;8772;42.804;23.426;2023-03-18T07:49:52;74505.16;;;-140.58;97.71
17309;BME280;8772;42.804;23.426;2023-03-18T07:52:19;74486.69;;;-140.58;92.46
17309;BME280;8772;42.804;23.426;2023-03-18T07:54:46;74466.19;;;-140.58;92.00
17309;BME280;8772;42.804;23.426;2023-03-18T07:57:14;74474.38;;;-140.58;83.18
17309;BME280;8772;42.804;23.426;2023-03-18T07:59:41;74474.38;;;-140.58;79.81
17309;BME280;8772;42.804;23.426;2023-03-18T08:02:10;74439.50;;;-140.58;82.19
17309;BME280;8772;42.804;23.426;2023-03-18T08:04:38;74416.94;;;-140.58;82.54
17309;BME280;8772;42.804;23.426;2023-03-18T08:07:05;74388.22;;;-140.58;78.27
17309;BME280;8772;42.804;23.426;2023-03-18T08:09:33;74367.69;;;-140.58;79.75
17309;BME280;8772;42.804;23.426;2023-03-18T08:12:00;74351.28;;;-140.58;76.13
17309;BME280;8772;42.804;23.426;2023-03-18T08:14:28;74330.75;;;-140.58;78.42
17309;BME280;8772;42.804;23.426;2023-03-18T08:16:55;74293.84;;;-140.58;76.24
17309;BME280;8772;42.804;23.426;2023-03-18T08:19:22;74269.22;;;-140.58;70.67
17309;BME280;8772;42.804;23.426;2023-03-18T08:21:49;74228.19;;;-140.58;68.03
17309;BME280;8772;42.804;23.426;2023-03-18T08:24:16;74236.38;;;-140.58;56.62
17309;BME280;8772;42.804;23.426;2023-03-18T08:26:49;74238.44;;;-140.58;56.60
17309;BME280;8772;42.804;23.426;2023-03-18T08:29:15;74217.91;;;-140.58;57.88
17309;BME280;8772;42.804;23.426;2023-03-18T08:31:44;74166.63;;;-140.58;58.64
17309;BME280;8772;42.804;23.426;2023-03-18T08:34:11;74137.91;;;-140.58;57.50
17309;BME280;8772;42.804;23.426;2023-03-18T08:36:39;74119.44;;;-140.58;56.14
17309;BME280;8772;42.804;23.426;2023-03-18T08:39:06;74125.59;;;-140.58;55.44
17309;BME280;8772;42.804;23.426;2023-03-18T08:41:34;74109.19;;;-140.58;55.37
17309;BME280;8772;42.804;23.426;2023-03-18T08:44:01;74088.66;;;-140.58;52.96
17309;BME280;8772;42.804;23.426;2023-03-18T08:46:31;74109.19;;;-140.58;53.31
17309;BME280;8772;42.804;23.426;2023-03-18T08:48:59;74127.66;;;-140.58;53.09
17309;BME280;8772;42.804;23.426;2023-03-18T08:51:26;74117.38;;;-140.58;54.30
17309;BME280;8772;42.804;23.426;2023-03-18T08:53:53;74072.25;;;-140.58;53.92
17309;BME280;8772;42.804;23.426;2023-03-18T08:56:20;74031.22;;;-140.58;52.20
17309;BME280;8772;42.804;23.426;2023-03-18T08:58:47;74043.53;;;-140.58;50.43
17309;BME280;8772;42.804;23.426;2023-03-18T09:01:14;74010.72;;;-140.58;50.52
17309;BME280;8772;42.804;23.426;2023-03-18T09:03:41;73967.63;;;-140.58;50.23
17309;BME280;8772;42.804;23.426;2023-03-18T09:06:10;73943.00;;;-140.58;51.16
17309;BME280;8772;42.804;23.426;2023-03-18T09:08:37;73916.34;;;-140.58;49.20
17309;BME280;8772;42.804;23.426;2023-03-18T09:11:05;73965.56;;;-140.58;46.28
17309;BME280;8772;42.804;23.426;2023-03-18T09:13:33;73918.38;;;-140.58;48.44
17309;BME280;8772;42.804;23.426;2023-03-18T09:15:59;73883.50;;;-140.58;48.92
17309;BME280;8772;42.804;23.426;2023-03-18T09:18:27;73842.47;;;-140.58;47.43
17309;BME280;8772;42.804;23.426;2023-03-18T09:20:54;73834.28;;;-140.58;48.53
17309;BME280;8772;42.804;23.426;2023-03-18T09:23:22;73789.16;;;-140.58;45.31
17309;BME280;8772;42.804;23.426;2023-03-18T09:25:50;73733.75;;;-140.58;45.95
17309;BME280;8772;42.804;23.426;2023-03-18T09:28:19;73709.13;;;-140.58;44.36
17309;BME280;8772;42.804;23.426;2023-03-18T09:30:46;73746.06;;;-140.58;41.29
17309;BME280;8772;42.804;23.426;2023-03-18T09:33:13;73711.19;;;-140.58;41.96
17309;BME280;8772;42.804;23.426;2023-03-18T09:35:40;73700.94;;;-140.58;42.21
17309;BME280;8772;42.804;23.426;2023-03-18T09:38:09;73676.31;;;-140.58;41.96
17309;BME280;8772;42.804;23.426;2023-03-18T09:40:49;73698.88;;;-140.58;40.40
17309;BME280;8772;42.804;23.426;2023-03-18T09:43:32;73688.63;;;-140.58;40.57
17309;BME280;8772;42.804;23.426;2023-03-18T09:46:07;73670.16;;;-140.58;38.73
17309;BME280;8772;42.804;23.426;2023-03-18T09:48:46;73670.16;;;-140.58;40.91
17309;BME280;8772;42.804;23.426;2023-03-18T09:51:25;73735.81;;;-140.58;36.08
17309;BME280;8772;42.804;23.426;2023-03-18T09:53:57;73764.53;;;-140.58;34.71
17309;BME280;8772;42.804;23.426;2023-03-18T09:56:29;73879.41;;;-140.58;34.82
17309;BME280;8772;42.804;23.426;2023-03-18T09:59:00;73875.31;;;-140.58;35.06
17309;BME280;8772;42.804;23.426;2023-03-18T10:01:31;73912.22;;;-140.58;35.37
17309;BME280;8772;42.804;23.426;2023-03-18T10:04:03;73957.38;;;-140.58;36.37
17309;BME280;8772;42.804;23.426;2023-03-18T10:06:32;74037.38;;;-140.58;36.87
17309;BME280;8772;42.804;23.426;2023-03-18T10:09:08;74008.66;;;-140.58;36.98
17309;BME280;8772;42.804;23.426;2023-03-18T10:11:43;74043.53;;;-140.58;38.94
17309;BME280;8772;42.804;23.426;2023-03-18T10:14:18;74010.72;;;-140.58;38.48
17309;BME280;8772;42.804;23.426;2023-03-18T10:16:54;74004.56;;;-140.58;39.51
17309;BME280;8772;42.804;23.426;2023-03-18T10:19:23;73971.72;;;-140.58;38.46
17309;BME280;8772;42.804;23.426;2023-03-18T10:22:04;73990.19;;;-140.58;39.52
17309;BME280;8772;42.804;23.426;2023-03-18T10:24:37;73994.28;;;-140.58;40.71
17309;BME280;8772;42.804;23.426;2023-03-18T10:27:18;74031.22;;;-140.58;42.44
17309;BME280;8772;42.804;23.426;2023-03-18T10:29:51;74084.56;;;-140.58;41.73
17309;BME280;8772;42.804;23.426;2023-03-18T10:32:30;74129.69;;;-140.58;41.34
17309;BME280;8772;42.804;23.426;2023-03-18T10:35:07;74113.28;;;-140.58;41.92
17309;BME280;8772;42.804;23.426;2023-03-18T10:37:49;74076.34;;;-140.58;41.74
17309;BME280;8772;42.804;23.426;2023-03-18T10:40:18;74049.69;;;-140.58;41.80
17309;BME280;8772;42.804;23.426;2023-03-18T10:42:47;74043.53;;;-140.58;41.84
17309;BME280;8772;42.804;23.426;2023-03-18T10:45:21;74068.16;;;-140.58;38.70
17309;BME280;8772;42.804;23.426;2023-03-18T10:47:53;74051.75;;;-140.58;38.60
17309;BME280;8772;42.804;23.426;2023-03-18T10:50:25;74049.69;;;-140.58;38.00
17309;BME280;8772;42.804;23.426;2023-03-18T10:53:00;74033.28;;;-140.58;39.20
17309;BME280;8772;42.804;23.426;2023-03-18T10:55:35;74014.81;;;-140.58;38.03
17309;BME280;8772;42.804;23.426;2023-03-18T10:58:13;74023.00;;;-140.58;37.51
17309;BME280;8772;42.804;23.426;2023-03-18T11:00:40;73977.88;;;-140.58;37.73
17309;BME280;8772;42.804;23.426;2023-03-18T11:03:18;73949.16;;;-140.58;38.36
17309;BME280;8772;42.804;23.426;2023-03-18T11:05:48;73967.63;;;-140.58;37.40
17309;BME280;8772;42.804;23.426;2023-03-18T11:08:32;73973.78;;;-140.58;37.71
17309;BME280;8772;42.804;23.426;2023-03-18T11:11:29;73947.09;;;-140.58;37.43
17309;BME280;8772;42.804;23.426;2023-03-18T11:14:01;73901.97;;;-140.58;36.51
17309;BME280;8772;42.804;23.426;2023-03-18T11:16:33;73932.75;;;-140.58;35.47
17309;BME280;8772;42.804;23.426;2023-03-18T11:21:59;73961.47;;;-140.58;37.63
17309;BME280;8772;42.804;23.426;2023-03-18T11:24:29;73977.88;;;-140.58;37.54
17309;BME280;8772;42.804;23.426;2023-03-18T11:27:21;73986.09;;;-140.58;36.79
17309;BME280;8772;42.804;23.426;2023-03-18T11:29:54;73971.72;;;-140.58;35.89
17309;BME280;8772;42.804;23.426;2023-03-18T11:32:24;73965.56;;;-140.58;36.59
17309;BME280;8772;42.804;23.426;2023-03-18T11:34:55;73940.94;;;-140.58;36.49
17309;BME280;8772;42.804;23.426;2023-03-18T11:37:29;73986.09;;;-140.58;37.24
17309;BME280;8772;42.804;23.426;2023-03-18T11:40:19;73940.94;;;-140.58;36.42
17309;BME280;8772;42.804;23.426;2023-03-18T11:42:54;73932.75;;;-140.58;37.16
17309;BME280;8772;42.804;23.426;2023-03-18T11:45:41;73938.91;;;-140.58;37.24
17309;BME280;8772;42.804;23.426;2023-03-18T11:48:19;73949.16;;;-140.58;35.79
17309;BME280;8772;42.804;23.426;2023-03-18T11:51:05;73973.78;;;-140.58;36.16
17309;BME280;8772;42.804;23.426;2023-03-18T11:53:45;73920.44;;;-140.58;36.05
17309;BME280;8772;42.804;23.426;2023-03-18T11:56:22;73945.06;;;-140.58;35.68
17309;BME280;8772;42.804;23.426;2023-03-18T11:59:19;73947.09;;;-140.58;35.80
17309;BME280;8772;42.804;23.426;2023-03-18T12:01:58;73936.84;;;-140.58;36.38
17309;BME280;8772;42.804;23.426;2023-03-18T12:04:41;73897.88;;;-140.58;36.74
17309;BME280;8772;42.804;23.426;2023-03-18T12:07:40;73887.63;;;-140.58;35.10
17309;BME280;8772;42.804;23.426;2023-03-18T12:10:16;73959.41;;;-140.58;35.37
17309;BME280;8772;42.804;23.426;2023-03-18T12:12:53;73955.31;;;-140.58;35.62
17309;BME280;8772;42.804;23.426;2023-03-18T12:15:33;73953.25;;;-140.58;36.39
17309;BME280;8772;42.804;23.426;2023-03-18T12:18:10;73961.47;;;-140.58;35.67
17309;BME280;8772;42.804;23.426;2023-03-18T12:20:47;73988.13;;;-140.58;36.62
17309;BME280;8772;42.804;23.426;2023-03-18T12:23:47;74018.91;;;-140.58;35.84
17309;BME280;8772;42.804;23.426;2023-03-18T12:26:24;74059.94;;;-140.58;36.43
17309;BME280;8772;42.804;23.426;2023-03-18T12:29:13;74064.03;;;-140.58;36.67
17309;BME280;8772;42.804;23.426;2023-03-18T12:31:53;74047.63;;;-140.58;37.22
17309;BME280;8772;42.804;23.426;2023-03-18T12:34:35;74105.09;;;-140.58;37.40
17309;BME280;8772;42.804;23.426;2023-03-18T12:37:21;74088.66;;;-140.58;37.93
17309;BME280;8772;42.804;23.426;2023-03-18T12:40:11;74072.25;;;-140.58;37.09
17309;BME280;8772;42.804;23.426;2023-03-18T12:43:00;74055.84;;;-140.58;38.08
17309;BME280;8772;42.804;23.426;2023-03-18T12:45:34;74023.00;;;-140.58;36.17
17309;BME280;8772;42.804;23.426;2023-03-18T12:48:10;73996.34;;;-140.58;35.22
17309;BME280;8772;42.804;23.426;2023-03-18T12:50:41;73984.03;;;-140.58;36.10
17309;BME280;8772;42.804;23.426;2023-03-18T12:53:15;73975.81;;;-140.58;35.35
17309;BME280;8772;42.804;23.426;2023-03-18T12:55:45;73957.38;;;-140.58;34.83